Time;durP1;ratioP1;P1;durP2;ratioP2;P2;SDS_P1;SDS_P2;PMS_P1;PMS_P2;Temp;Humidity;BMP_temperature;BMP_pressure;BME280_temperature;BME280_humidity;BME280_pressure;Samples;Min_cycle;Max_cycle;Signal;HPM_P1;HPM_P2
2021/05/19 00:00:50;;;;;;;18.30;13.65;;;8.90;99.90;;;;;;5035001;28;20215;-65
2021/05/19 00:03:16;;;;;;;23.07;16.33;;;8.90;99.90;;;;;;5034939;28;20173;-65
2021/05/19 00:05:42;;;;;;;19.60;14.73;;;9.10;99.90;;;;;;5035316;28;20186;-65
2021/05/19 00:08:08;;;;;;;22.80;14.88;;;9.10;99.90;;;;;;5034995;28;20192;-65
2021/05/19 00:10:35;;;;;;;22.37;15.00;;;9.20;99.90;;;;;;5034750;28;20205;-65
2021/05/19 00:13:01;;;;;;;20.58;15.45;;;9.10;99.90;;;;;;5034859;28;20522;-65
2021/05/19 00:15:27;;;;;;;21.77;15.63;;;9.10;99.90;;;;;;5034648;28;20189;-65
2021/05/19 00:17:55;;;;;;;23.38;16.63;;;9.10;99.90;;;;;;5034923;28;20967;-65
2021/05/19 00:20:21;;;;;;;20.58;15.40;;;9.00;99.90;;;;;;5034873;28;20694;-65
2021/05/19 00:22:47;;;;;;;27.47;16.60;;;8.90;99.90;;;;;;5034659;28;20209;-65
2021/05/19 00:25:15;;;;;;;22.67;15.02;;;8.90;99.90;;;;;;5016906;28;20446;-65
2021/05/19 00:27:41;;;;;;;23.73;14.75;;;8.80;99.90;;;;;;5034565;28;20183;-65
2021/05/19 00:30:08;;;;;;;22.57;15.73;;;9.00;99.90;;;;;;5034499;28;20184;-65
2021/05/19 00:32:33;;;;;;;20.45;14.70;;;8.90;99.90;;;;;;5034441;28;20256;-65
2021/05/19 00:34:59;;;;;;;21.73;15.10;;;8.90;99.90;;;;;;5034126;28;20575;-65
2021/05/19 00:37:24;;;;;;;19.90;14.50;;;8.90;99.90;;;;;;5034478;28;20204;-65
2021/05/19 00:39:50;;;;;;;19.60;13.10;;;8.90;99.90;;;;;;5034494;28;20503;-65
2021/05/19 00:42:16;;;;;;;19.80;14.10;;;8.90;99.90;;;;;;5034436;28;20633;-65
2021/05/19 00:44:42;;;;;;;21.00;13.87;;;9.00;99.90;;;;;;5034150;28;20618;-65
2021/05/19 00:47:08;;;;;;;19.77;13.63;;;9.10;99.90;;;;;;5034130;28;20769;-65
2021/05/19 00:49:34;;;;;;;15.00;12.33;;;9.20;99.90;;;;;;5034269;28;20261;-65
2021/05/19 00:51:59;;;;;;;17.07;12.70;;;9.30;99.90;;;;;;5034142;28;20525;-65
2021/05/19 00:54:25;;;;;;;14.73;11.77;;;9.40;99.90;;;;;;5033766;28;20653;-65
2021/05/19 00:56:52;;;;;;;15.80;12.77;;;9.40;99.90;;;;;;5033789;28;20546;-65
2021/05/19 00:59:19;;;;;;;19.38;13.05;;;9.40;99.90;;;;;;5034049;28;20801;-65
2021/05/19 01:01:45;;;;;;;17.02;13.60;;;9.30;99.90;;;;;;5033916;28;20299;-65
2021/05/19 01:04:12;;;;;;;17.75;13.70;;;9.20;99.90;;;;;;5033676;28;20215;-65
2021/05/19 01:06:55;;;;;;;16.98;13.10;;;9.20;99.90;;;;;;5033918;28;20334;-65
2021/05/19 01:09:36;;;;;;;19.20;12.30;;;9.10;99.90;;;;;;5033948;28;20168;-65
2021/05/19 01:12:10;;;;;;;19.23;13.70;;;9.20;99.90;;;;;;5033618;28;20196;-65
2021/05/19 01:14:37;;;;;;;18.80;13.45;;;9.10;99.90;;;;;;5015935;28;20189;-65
2021/05/19 01:17:02;;;;;;;15.65;12.32;;;9.10;99.90;;;;;;5033677;28;20204;-65
2021/05/19 01:19:30;;;;;;;15.00;12.23;;;9.10;99.90;;;;;;5033599;28;20181;-65
2021/05/19 01:22:04;;;;;;;18.25;13.00;;;9.10;99.90;;;;;;5033370;28;20292;-65
2021/05/19 01:24:31;;;;;;;14.45;12.45;;;9.10;99.90;;;;;;5033380;28;20185;-66
2021/05/19 01:26:56;;;;;;;16.70;12.60;;;9.20;99.90;;;;;;5016016;28;20179;-65
2021/05/19 01:29:22;;;;;;;17.03;12.63;;;9.10;99.90;;;;;;5033417;28;20521;-65
2021/05/19 01:31:48;;;;;;;17.47;11.90;;;9.10;99.90;;;;;;5033265;28;20180;-69
2021/05/19 01:34:14;;;;;;;15.52;12.93;;;9.10;99.90;;;;;;5032959;28;20233;-69
2021/05/19 01:36:39;;;;;;;17.80;13.67;;;9.20;99.90;;;;;;5033284;28;20180;-69
2021/05/19 01:39:06;;;;;;;17.60;13.40;;;9.10;99.90;;;;;;5033178;28;20435;-66
2021/05/19 01:41:32;;;;;;;21.25;13.63;;;9.10;99.90;;;;;;5015678;28;20286;-65
2021/05/19 01:43:58;;;;;;;18.03;12.60;;;9.00;99.90;;;;;;5032808;28;20181;-65
2021/05/19 01:46:23;;;;;;;18.30;13.63;;;9.00;99.90;;;;;;5033087;28;20424;-65
2021/05/19 01:48:57;;;;;;;15.50;12.40;;;9.00;99.90;;;;;;5033277;28;20184;-65
2021/05/19 01:51:24;;;;;;;15.77;13.15;;;9.10;99.90;;;;;;5033250;28;20213;-65
2021/05/19 01:53:49;;;;;;;20.05;14.20;;;9.30;99.90;;;;;;5032648;28;20187;-65
2021/05/19 01:56:15;;;;;;;19.20;14.37;;;9.30;99.90;;;;;;5033222;28;20626;-65
2021/05/19 01:58:41;;;;;;;16.47;12.50;;;9.10;99.90;;;;;;5032615;28;20181;-65
2021/05/19 02:01:07;;;;;;;17.33;12.70;;;9.00;99.90;;;;;;5032764;28;20248;-66
2021/05/19 02:03:32;;;;;;;23.20;14.50;;;9.10;99.90;;;;;;5032801;28;20184;-69
2021/05/19 02:05:58;;;;;;;17.37;13.20;;;9.20;99.90;;;;;;5032703;28;20512;-70
2021/05/19 02:08:23;;;;;;;20.67;13.70;;;8.90;99.90;;;;;;5032933;28;20380;-70
2021/05/19 02:10:49;;;;;;;19.70;13.90;;;8.80;99.90;;;;;;5032723;28;20207;-69
2021/05/19 02:13:16;;;;;;;22.20;14.80;;;8.70;99.90;;;;;;5032511;28;20268;-69
2021/05/19 02:15:42;;;;;;;20.02;14.07;;;8.70;99.90;;;;;;5032636;28;20201;-69
2021/05/19 02:18:07;;;;;;;20.93;14.63;;;8.90;99.90;;;;;;5033133;28;20240;-66
2021/05/19 02:20:34;;;;;;;20.53;13.73;;;8.90;99.90;;;;;;5032673;28;20187;-66
2021/05/19 02:23:00;;;;;;;23.45;15.30;;;9.10;99.90;;;;;;5032762;28;20180;-66
2021/05/19 02:25:26;;;;;;;20.98;15.15;;;9.00;99.90;;;;;;5014820;28;20632;-66
2021/05/19 02:27:53;;;;;;;20.97;14.10;;;9.00;99.90;;;;;;5032609;28;20199;-66
2021/05/19 02:30:22;;;;;;;21.75;14.55;;;9.00;99.90;;;;;;5032726;28;20188;-66
2021/05/19 02:32:49;;;;;;;19.85;15.02;;;9.00;99.90;;;;;;5032544;28;20649;-65
2021/05/19 02:35:16;;;;;;;20.55;14.48;;;8.90;99.90;;;;;;5031969;28;20246;-65
2021/05/19 02:37:42;;;;;;;19.70;14.80;;;9.00;99.90;;;;;;5032565;28;20184;-65
2021/05/19 02:40:11;;;;;;;19.80;13.97;;;9.10;99.90;;;;;;5032333;28;20542;-66
2021/05/19 02:42:37;;;;;;;23.85;15.02;;;9.10;99.90;;;;;;5032666;28;20507;-65
2021/05/19 02:45:05;;;;;;;23.80;15.32;;;9.00;99.90;;;;;;5032082;28;20181;-65
2021/05/19 02:47:31;;;;;;;20.85;14.48;;;9.00;99.90;;;;;;5032566;28;20569;-65
2021/05/19 02:49:57;;;;;;;18.88;13.25;;;9.00;99.90;;;;;;5032652;28;20184;-66
2021/05/19 02:52:22;;;;;;;20.27;13.60;;;8.80;99.90;;;;;;5032422;28;20231;-66
2021/05/19 02:54:48;;;;;;;20.90;14.37;;;8.70;99.90;;;;;;5031923;28;20177;-66
2021/05/19 02:57:14;;;;;;;17.70;13.23;;;8.80;99.90;;;;;;5032460;28;20174;-66
2021/05/19 02:59:39;;;;;;;18.30;13.87;;;8.70;99.90;;;;;;5032394;28;20509;-66
2021/05/19 03:02:05;;;;;;;21.17;14.90;;;8.80;99.90;;;;;;5032094;28;20292;-66
2021/05/19 03:04:30;;;;;;;20.80;13.73;;;8.90;99.90;;;;;;5031955;28;20200;-66
2021/05/19 03:06:56;;;;;;;22.90;13.40;;;8.80;99.90;;;;;;5032456;28;20178;-66
2021/05/19 03:09:21;;;;;;;19.30;15.67;;;8.90;99.90;;;;;;5032778;28;20423;-66
2021/05/19 03:11:47;;;;;;;20.00;13.63;;;9.00;99.90;;;;;;5035912;28;20197;-66
2021/05/19 03:14:16;;;;;;;21.57;14.77;;;9.10;99.90;;;;;;5035688;28;20184;-66
2021/05/19 03:16:41;;;;;;;20.02;12.88;;;9.00;99.90;;;;;;5033768;28;20518;-65
2021/05/19 03:19:08;;;;;;;19.90;12.63;;;9.00;99.90;;;;;;5035991;28;20263;-66
2021/05/19 03:21:33;;;;;;;21.02;14.02;;;8.90;99.90;;;;;;5035826;28;20204;-66
2021/05/19 03:23:59;;;;;;;19.23;14.10;;;8.90;99.90;;;;;;5035119;28;20177;-66
2021/05/19 03:26:25;;;;;;;19.87;14.70;;;8.90;99.90;;;;;;5035594;28;20176;-66
2021/05/19 03:28:51;;;;;;;20.42;15.27;;;9.00;99.90;;;;;;5035795;28;20268;-66
2021/05/19 03:31:17;;;;;;;20.60;14.63;;;8.90;99.90;;;;;;5035716;28;20219;-66
2021/05/19 03:33:43;;;;;;;21.33;14.73;;;8.90;99.90;;;;;;5035193;28;20200;-66
2021/05/19 03:36:09;;;;;;;20.57;14.73;;;8.70;99.90;;;;;;5035928;28;20181;-66
2021/05/19 03:38:35;;;;;;;22.20;15.13;;;8.60;99.90;;;;;;5035768;28;20214;-66
2021/05/19 03:41:03;;;;;;;18.38;14.68;;;8.60;99.90;;;;;;5036097;28;20763;-66
2021/05/19 03:43:28;;;;;;;20.65;16.40;;;8.70;99.90;;;;;;5035755;28;20185;-66
2021/05/19 03:45:54;;;;;;;23.03;15.30;;;8.70;99.90;;;;;;5035586;28;20172;-66
2021/05/19 03:48:20;;;;;;;20.60;13.97;;;8.60;99.90;;;;;;5035851;28;20549;-66
2021/05/19 03:50:46;;;;;;;21.70;16.20;;;8.90;99.90;;;;;;5035855;28;20618;-66
2021/05/19 03:53:11;;;;;;;24.90;16.10;;;8.90;99.90;;;;;;5035933;28;20199;-66
2021/05/19 03:55:38;;;;;;;23.37;16.77;;;8.90;99.90;;;;;;5038740;28;20919;-66
2021/05/19 03:58:04;;;;;;;22.90;16.42;;;9.20;99.90;;;;;;5038928;28;20501;-66
2021/05/19 04:00:34;;;;;;;29.40;18.23;;;9.80;99.90;;;;;;5038303;28;20264;-68
2021/05/19 04:02:59;;;;;;;23.73;16.83;;;10.10;99.90;;;;;;5021048;28;20217;-66
2021/05/19 04:05:27;;;;;;;28.03;19.10;;;9.90;99.90;;;;;;5021475;28;20571;-66
2021/05/19 04:07:53;;;;;;;33.67;22.02;;;9.80;99.90;;;;;;5038654;28;20503;-66
2021/05/19 04:10:21;;;;;;;22.95;16.30;;;10.30;99.90;;;;;;5039099;28;20181;-66
2021/05/19 04:12:50;;;;;;;19.83;15.70;;;11.30;99.90;;;;;;5038003;28;20181;-66
2021/05/19 04:15:18;;;;;;;21.23;16.08;;;11.50;99.90;;;;;;5035718;28;20185;-66
2021/05/19 04:17:44;;;;;;;21.02;15.68;;;12.30;99.90;;;;;;5035752;28;20185;-66
2021/05/19 04:20:10;;;;;;;20.40;15.30;;;13.30;90.10;;;;;;5034449;28;20189;-66
2021/05/19 04:22:36;;;;;;;20.83;15.82;;;13.70;1.00;;;;;;5034757;28;20233;-66
2021/05/19 04:25:02;;;;;;;15.17;13.27;;;14.70;99.90;;;;;;5034285;28;20259;-66
2021/05/19 04:27:28;;;;;;;14.80;13.00;;;15.30;1.00;;;;;;5034743;28;20201;-66
2021/05/19 04:29:53;;;;;;;17.20;14.03;;;16.20;99.90;;;;;;5034934;28;20484;-66
2021/05/19 04:32:19;;;;;;;16.10;13.23;;;16.60;1.00;;;;;;5017360;28;20485;-66
2021/05/19 04:34:44;;;;;;;14.50;11.73;;;17.20;99.90;;;;;;5034048;28;20540;-66
2021/05/19 04:37:10;;;;;;;12.00;10.80;;;18.70;1.00;;;;;;5034858;28;20189;-66
2021/05/19 04:39:36;;;;;;;13.40;11.57;;;19.40;99.90;;;;;;5017536;28;20516;-66
2021/05/19 04:42:02;;;;;;;11.77;10.53;;;20.00;99.90;;;;;;5034542;28;20197;-66
2021/05/19 04:44:28;;;;;;;10.60;9.50;;;20.70;1.00;;;;;;5033591;28;20424;-66
2021/05/19 04:46:53;;;;;;;12.40;10.53;;;20.40;1.00;;;;;;5034394;28;20477;-66
2021/05/19 04:49:22;;;;;;;11.07;9.97;;;20.80;1.00;;;;;;5017121;28;20181;-66
2021/05/19 04:51:48;;;;;;;12.27;10.90;;;20.70;1.00;;;;;;5034217;28;20170;-66
2021/05/19 04:54:17;;;;;;;11.23;10.23;;;20.90;1.00;;;;;;5033649;28;20439;-66
2021/05/19 04:56:43;;;;;;;11.27;8.97;;;21.10;1.00;;;;;;5034163;28;20420;-66
2021/05/19 04:59:08;;;;;;;11.57;10.47;;;21.00;1.00;;;;;;5033883;28;20439;-66
2021/05/19 05:01:34;;;;;;;10.97;9.83;;;21.90;1.00;;;;;;5034193;28;20205;-66
2021/05/19 05:04:00;;;;;;;10.00;9.00;;;22.30;1.00;;;;;;5033661;28;20173;-66
2021/05/19 05:06:25;;;;;;;8.83;8.03;;;21.50;1.00;;;;;;5033921;28;20420;-66
2021/05/19 05:08:51;;;;;;;10.33;9.30;;;21.50;1.00;;;;;;5034056;28;20514;-66
2021/05/19 05:11:16;;;;;;;9.30;8.03;;;21.60;1.00;;;;;;5033769;28;20193;-66
2021/05/19 05:13:42;;;;;;;9.97;8.97;;;20.50;1.00;;;;;;5033954;28;20185;-67
2021/05/19 05:16:08;;;;;;;8.33;7.53;;;19.30;59.60;;;;;;5033618;28;20192;-67
2021/05/19 05:18:35;;;;;;;12.10;9.77;;;17.70;1.00;;;;;;5016748;28;20193;-66
2021/05/19 05:21:02;;;;;;;9.97;8.80;;;17.80;1.00;;;;;;5033886;28;20517;-67
2021/05/19 05:23:28;;;;;;;10.83;9.73;;;18.30;99.90;;;;;;5033764;28;20880;-66
2021/05/19 05:25:54;;;;;;;8.67;7.80;;;19.10;99.90;;;;;;5033097;28;20507;-66
2021/05/19 05:28:20;;;;;;;9.10;8.30;;;19.30;99.90;;;;;;5016864;28;20465;-66
2021/05/19 05:30:45;;;;;;;8.10;7.10;;;20.00;17.60;;;;;;5033518;28;20457;-66
2021/05/19 05:33:11;;;;;;;9.80;7.97;;;21.10;1.00;;;;;;5015127;28;20184;-65
2021/05/19 05:35:37;;;;;;;8.00;7.20;;;21.80;1.00;;;;;;5015554;28;20182;-65
2021/05/19 05:38:02;;;;;;;8.80;7.93;;;22.50;1.00;;;;;;5033432;28;20236;-66
2021/05/19 05:40:28;;;;;;;10.03;7.40;;;22.20;1.00;;;;;;5033654;28;20609;-67
2021/05/19 05:42:53;;;;;;;7.87;7.00;;;21.10;1.00;;;;;;5033384;28;20339;-66
2021/05/19 05:45:19;;;;;;;7.60;6.90;;;22.00;1.00;;;;;;5032895;28;20177;-66
2021/05/19 05:47:44;;;;;;;8.13;7.30;;;23.50;1.00;;;;;;5033226;28;20170;-66
2021/05/19 05:50:11;;;;;;;7.97;6.80;;;23.40;1.00;;;;;;5015958;28;20276;-66
2021/05/19 05:52:38;;;;;;;9.03;8.23;;;22.90;1.00;;;;;;5033233;28;20189;-66
2021/05/19 05:55:04;;;;;;;8.83;7.90;;;22.90;1.00;;;;;;5032627;28;20432;-66
2021/05/19 05:57:32;;;;;;;9.57;8.60;;;21.70;1.00;;;;;;5033455;28;20494;-66
2021/05/19 05:59:58;;;;;;;8.43;7.63;;;20.40;1.00;;;;;;5015879;28;20432;-67
2021/05/19 06:02:24;;;;;;;8.87;8.07;;;20.20;1.00;;;;;;5033063;28;20529;-67
2021/05/19 06:04:49;;;;;;;10.10;9.10;;;19.50;96.20;;;;;;5032294;28;20232;-67
2021/05/19 06:07:15;;;;;;;9.90;9.00;;;20.00;1.00;;;;;;5033128;28;20189;-68
2021/05/19 06:09:44;;;;;;;10.30;9.30;;;19.90;1.00;;;;;;5032981;28;20456;-67
2021/05/19 06:12:10;;;;;;;9.33;8.03;;;20.00;1.00;;;;;;5033342;28;20200;-67
2021/05/19 06:14:35;;;;;;;10.10;9.03;;;21.40;1.00;;;;;;5031990;28;20743;-67
2021/05/19 06:17:03;;;;;;;8.23;7.43;;;22.10;1.00;;;;;;5032908;28;20525;-67
2021/05/19 06:19:28;;;;;;;9.13;8.33;;;23.20;1.00;;;;;;5033088;28;20280;-67
2021/05/19 06:21:54;;;;;;;7.17;6.13;;;24.10;1.00;;;;;;5032934;28;20555;-67
2021/05/19 06:24:19;;;;;;;8.50;7.53;;;22.10;1.00;;;;;;5014393;28;20200;-67
2021/05/19 06:26:45;;;;;;;7.30;6.17;;;21.50;1.00;;;;;;5033021;28;20285;-67
2021/05/19 06:29:12;;;;;;;9.30;8.50;;;20.20;1.00;;;;;;5032640;28;20174;-67
2021/05/19 06:31:38;;;;;;;10.40;9.30;;;19.20;26.20;;;;;;5032682;28;20177;-67
2021/05/19 06:34:04;;;;;;;9.77;8.77;;;18.90;99.90;;;;;;5032034;28;20439;-67
2021/05/19 06:36:32;;;;;;;7.93;7.13;;;19.00;99.90;;;;;;5032712;28;20428;-67
2021/05/19 06:38:58;;;;;;;8.87;7.97;;;19.60;99.90;;;;;;5032604;28;20192;-67
2021/05/19 06:41:23;;;;;;;10.13;9.03;;;19.50;1.00;;;;;;5032399;28;20468;-67
2021/05/19 06:43:49;;;;;;;7.43;6.73;;;19.50;51.50;;;;;;5033558;28;20186;-67
2021/05/19 06:46:14;;;;;;;8.57;7.77;;;19.20;16.10;;;;;;5037164;28;20257;-67
2021/05/19 06:48:40;;;;;;;7.57;6.80;;;18.50;99.90;;;;;;5047528;28;20246;-66
2021/05/19 06:51:06;;;;;;;8.00;7.20;;;17.10;1.00;;;;;;5056973;28;20181;-67
2021/05/19 06:53:31;;;;;;;7.50;6.80;;;17.10;1.00;;;;;;5056452;28;20880;-67
2021/05/19 06:55:57;;;;;;;8.23;7.43;;;18.60;99.90;;;;;;5056525;28;20177;-67
2021/05/19 06:58:23;;;;;;;8.37;7.17;;;18.40;99.90;;;;;;5056798;28;20621;-66
2021/05/19 07:00:49;;;;;;;8.37;7.30;;;17.60;99.90;;;;;;5039361;28;20431;-66
2021/05/19 07:03:14;;;;;;;9.60;8.27;;;17.30;1.00;;;;;;5055603;28;20653;-67
2021/05/19 07:05:40;;;;;;;10.30;7.50;;;17.70;99.90;;;;;;5050368;28;20196;-67
2021/05/19 07:08:06;;;;;;;7.60;6.43;;;17.00;1.00;;;;;;5055415;28;20185;-67
2021/05/19 07:10:33;;;;;;;10.43;8.85;;;15.20;1.00;;;;;;5055650;28;20622;-66
2021/05/19 07:12:58;;;;;;;11.25;9.25;;;14.80;1.00;;;;;;5055999;28;20181;-67
2021/05/19 07:15:24;;;;;;;9.67;8.67;;;14.90;99.90;;;;;;5055148;28;20195;-67
2021/05/19 07:17:50;;;;;;;10.27;9.20;;;14.90;1.00;;;;;;5055909;28;20513;-65
2021/05/19 07:20:15;;;;;;;10.70;9.60;;;16.20;1.00;;;;;;5055967;28;20216;-64
2021/05/19 07:22:41;;;;;;;9.83;8.20;;;16.40;99.90;;;;;;5055735;28;20204;-65
2021/05/19 07:25:08;;;;;;;8.43;7.73;;;15.70;99.90;;;;;;5054983;28;20575;-64
2021/05/19 07:27:35;;;;;;;8.50;7.70;;;16.70;1.00;;;;;;5056090;28;20200;-67
2021/05/19 07:30:01;;;;;;;8.70;7.43;;;18.10;99.90;;;;;;5055711;28;20518;-66
2021/05/19 07:32:27;;;;;;;10.90;9.70;;;19.30;1.00;;;;;;5055677;28;20434;-66
2021/05/19 07:34:52;;;;;;;10.10;7.83;;;18.30;99.90;;;;;;5054866;28;20423;-70
2021/05/19 07:37:18;;;;;;;9.23;8.30;;;18.10;99.90;;;;;;5055521;28;20453;-68
2021/05/19 07:39:44;;;;;;;10.53;8.57;;;17.30;99.90;;;;;;5037702;28;20207;-68
2021/05/19 07:42:16;;;;;;;9.23;8.30;;;15.80;1.00;;;;;;5037904;28;20977;-67
2021/05/19 07:44:42;;;;;;;9.23;7.50;;;15.70;29.60;;;;;;5054753;28;20197;-67
2021/05/19 07:47:07;;;;;;;8.47;7.03;;;16.30;1.00;;;;;;5055358;28;20521;-65
2021/05/19 07:49:33;;;;;;;6.83;6.13;;;15.50;1.00;;;;;;5055129;28;20606;-66
2021/05/19 07:51:58;;;;;;;7.73;6.50;;;14.80;1.00;;;;;;5055372;28;20172;-66
2021/05/19 07:54:27;;;;;;;8.27;7.30;;;14.70;1.00;;;;;;5054148;28;20184;-67
2021/05/19 07:57:11;;;;;;;9.45;8.45;;;14.70;99.90;;;;;;5054152;28;20637;-66
2021/05/19 07:59:40;;;;;;;10.32;8.10;;;14.20;99.90;;;;;;5054844;28;20199;-65
2021/05/19 08:02:08;;;;;;;8.55;7.75;;;13.80;1.00;;;;;;5054061;28;20201;-66
2021/05/19 08:04:36;;;;;;;7.85;7.05;;;13.70;23.00;;;;;;5054464;28;20609;-67
2021/05/19 08:07:03;;;;;;;7.90;5.90;;;14.20;1.00;;;;;;5054811;28;20181;-66
2021/05/19 08:09:29;;;;;;;7.55;6.07;;;14.30;99.90;;;;;;5055099;28;20219;-66
2021/05/19 08:11:55;;;;;;;6.00;5.40;;;14.20;1.00;;;;;;5055020;28;20205;-67
2021/05/19 08:14:21;;;;;;;7.82;6.80;;;14.60;1.00;;;;;;5054255;28;20807;-66
2021/05/19 08:16:47;;;;;;;14.67;8.40;;;15.10;99.90;;;;;;5054505;28;20177;-65
2021/05/19 08:19:13;;;;;;;8.53;7.60;;;15.60;27.00;;;;;;5043768;28;20920;-64
2021/05/19 08:21:39;;;;;;;9.00;7.68;;;15.80;1.00;;;;;;5053411;28;20459;-65
2021/05/19 08:24:07;;;;;;;9.73;7.68;;;15.40;11.80;;;;;;5053851;28;20594;-65
2021/05/19 08:26:32;;;;;;;6.90;6.25;;;14.90;99.90;;;;;;5047650;28;20213;-65
2021/05/19 08:28:58;;;;;;;6.30;5.70;;;15.20;99.90;;;;;;5034836;28;20247;-65
2021/05/19 08:31:24;;;;;;;7.47;5.90;;;15.30;33.40;;;;;;5034215;28;20428;-65
2021/05/19 08:33:50;;;;;;;6.73;5.87;;;15.80;1.00;;;;;;5034244;28;20192;-64
2021/05/19 08:36:16;;;;;;;6.80;5.68;;;16.00;1.00;;;;;;5034361;28;20177;-65
2021/05/19 08:38:43;;;;;;;7.00;6.30;;;14.60;1.00;;;;;;5034202;28;20264;-65
2021/05/19 08:41:09;;;;;;;11.30;7.55;;;14.50;98.50;;;;;;5034259;28;20987;-65
2021/05/19 08:43:35;;;;;;;6.93;6.22;;;14.50;1.50;;;;;;5034264;28;20181;-64
2021/05/19 08:46:09;;;;;;;12.32;8.10;;;14.50;99.90;;;;;;5033588;28;20613;-64
2021/05/19 08:48:35;;;;;;;8.98;8.00;;;14.40;36.10;;;;;;5016696;28;20177;-64
2021/05/19 08:51:01;;;;;;;8.13;7.32;;;14.10;99.90;;;;;;5034043;28;20264;-66
2021/05/19 08:53:28;;;;;;;7.80;7.00;;;14.60;1.00;;;;;;5027000;28;20178;-65
2021/05/19 08:55:54;;;;;;;7.47;6.03;;;14.90;1.00;;;;;;5048474;28;20227;-66
2021/05/19 08:58:23;;;;;;;8.27;6.40;;;15.60;64.70;;;;;;5053925;28;20177;-64
2021/05/19 09:00:49;;;;;;;8.60;7.53;;;16.30;99.90;;;;;;5054055;28;20217;-66
2021/05/19 09:03:18;;;;;;;8.40;7.30;;;16.80;1.00;;;;;;5053951;28;20561;-63
2021/05/19 09:05:49;;;;;;;8.48;7.40;;;16.70;1.00;;;;;;5053247;28;20207;-64
2021/05/19 09:08:17;;;;;;;7.50;6.75;;;16.30;1.00;;;;;;5053906;28;20168;-64
2021/05/19 09:10:44;;;;;;;10.07;7.35;;;16.00;99.90;;;;;;5039307;28;20247;-64
2021/05/19 09:13:32;;;;;;;6.97;6.28;;;15.90;1.00;;;;;;5033470;28;20178;-64
2021/05/19 09:15:58;;;;;;;9.27;7.40;;;15.60;1.00;;;;;;5032145;28;20185;-64
2021/05/19 09:18:25;;;;;;;8.45;7.65;;;15.40;54.40;;;;;;5033832;28;20192;-65
2021/05/19 09:20:52;;;;;;;9.23;7.70;;;15.30;99.90;;;;;;5033541;28;20275;-65
2021/05/19 09:23:22;;;;;;;9.23;8.27;;;15.50;99.90;;;;;;5033345;28;20623;-64
2021/05/19 09:26:10;;;;;;;6.77;6.17;;;16.10;99.90;;;;;;5032965;28;20181;-65
2021/05/19 09:28:35;;;;;;;5.75;5.15;;;16.70;1.00;;;;;;5033803;28;20430;-63
2021/05/19 09:31:01;;;;;;;6.03;5.43;;;16.50;99.90;;;;;;5033314;28;20261;-64
2021/05/19 09:33:28;;;;;;;6.30;5.33;;;15.80;99.90;;;;;;5033453;28;20174;-63
2021/05/19 09:36:18;;;;;;;7.97;5.90;;;15.70;1.00;;;;;;5032777;28;20272;-64
2021/05/19 09:38:47;;;;;;;6.33;5.73;;;15.90;1.00;;;;;;5033630;28;20243;-65
2021/05/19 09:41:18;;;;;;;5.87;5.37;;;16.50;99.90;;;;;;5033349;28;20456;-64
2021/05/19 09:43:45;;;;;;;4.90;4.50;;;16.70;99.90;;;;;;5032948;28;20420;-66
2021/05/19 09:46:18;;;;;;;7.00;5.60;;;17.30;99.90;;;;;;5033420;28;20424;-65
2021/05/19 09:48:45;;;;;;;5.90;5.38;;;16.50;99.90;;;;;;5032958;28;20904;-64
2021/05/19 09:51:27;;;;;;;5.30;4.80;;;16.70;99.90;;;;;;5033604;28;20197;-64
2021/05/19 09:53:53;;;;;;;5.47;4.10;;;16.90;99.90;;;;;;5032347;28;20451;-68
2021/05/19 09:56:19;;;;;;;3.87;3.17;;;17.00;99.90;;;;;;5039785;28;20427;-65
2021/05/19 09:58:48;;;;;;;6.20;4.90;;;16.80;99.90;;;;;;5052964;28;20491;-65
2021/05/19 10:01:13;;;;;;;4.60;4.20;;;16.90;44.80;;;;;;5044206;28;20466;-66
2021/05/19 10:03:39;;;;;;;4.27;3.43;;;17.30;1.00;;;;;;5032643;28;20428;-65
2021/05/19 10:08:38;;;;;;;3.83;3.40;;;17.00;99.90;;;;;;5032919;28;20180;-67
2021/05/19 10:11:05;;;;;;;3.60;3.30;;;16.10;99.90;;;;;;5032878;28;20894;-67
2021/05/19 10:13:32;;;;;;;4.23;3.50;;;16.00;1.00;;;;;;5044243;28;20200;-64
2021/05/19 10:16:00;;;;;;;4.23;3.40;;;16.20;99.90;;;;;;5052643;28;20446;-64
2021/05/19 10:18:30;;;;;;;6.67;3.40;;;16.30;99.90;;;;;;5052308;28;20434;-65
2021/05/19 10:20:57;;;;;;;3.97;2.50;;;16.60;99.90;;;;;;5052903;28;20423;-65
2021/05/19 10:23:39;;;;;;;2.40;2.20;;;16.80;25.80;;;;;;5052119;28;20447;-66
2021/05/19 10:26:09;;;;;;;3.50;2.40;;;16.30;20.40;;;;;;5052231;28;20492;-65
2021/05/19 10:28:44;;;;;;;3.70;2.67;;;16.90;22.10;;;;;;5052374;28;20477;-64
2021/05/19 10:31:26;;;;;;;3.30;2.70;;;17.30;2.20;;;;;;5052741;28;20431;-63
2021/05/19 10:34:01;;;;;;;3.03;2.60;;;17.00;18.40;;;;;;5051669;28;20427;-62
2021/05/19 10:36:39;;;;;;;3.23;2.60;;;16.30;99.90;;;;;;5052750;28;20859;-62
2021/05/19 10:39:11;;;;;;;2.70;2.30;;;16.30;99.90;;;;;;5052756;28;20705;-63
2021/05/19 10:42:01;;;;;;;4.03;2.80;;;16.50;99.90;;;;;;5052417;28;20560;-66
2021/05/19 10:44:29;;;;;;;2.40;2.20;;;17.30;99.90;;;;;;5051558;28;20415;-65
2021/05/19 10:46:59;;;;;;;2.87;2.60;;;17.50;8.50;;;;;;5035271;28;20795;-64
2021/05/19 10:49:43;;;;;;;2.60;2.40;;;17.20;1.00;;;;;;5052761;28;20422;-65
2021/05/19 10:57:45;;;;;;;2.33;1.73;;;16.50;33.40;;;;;;5052354;28;20957;-67
2021/05/19 11:00:21;;;;;;;2.20;1.70;;;16.60;1.00;;;;;;5052408;28;20827;-65
2021/05/19 11:02:53;;;;;;;2.37;2.13;;;17.40;1.00;;;;;;5032555;28;20467;-64
2021/05/19 11:05:20;;;;;;;2.00;1.77;;;17.50;1.00;;;;;;5014460;28;20424;-64
2021/05/19 11:08:04;;;;;;;2.97;2.43;;;17.20;1.00;;;;;;5032501;28;20424;-65
2021/05/19 11:10:30;;;;;;;2.30;2.07;;;16.70;1.00;;;;;;5032419;28;20432;-66
2021/05/19 11:12:56;;;;;;;2.60;2.00;;;15.90;99.90;;;;;;5040050;28;20430;-64
2021/05/19 11:15:56;;;;;;;2.30;1.80;;;15.40;99.90;;;;;;5051556;28;20220;-64
2021/05/19 11:20:48;;;;;;;3.50;2.30;;;16.30;99.90;;;;;;5053341;28;20469;-63
2021/05/19 11:23:15;;;;;;;2.73;2.50;;;16.00;99.90;;;;;;5052805;28;20553;-63
2021/05/19 11:25:41;;;;;;;2.53;2.20;;;16.10;99.90;;;;;;5052544;28;20517;-63
2021/05/19 11:28:08;;;;;;;3.70;2.30;;;16.10;1.00;;;;;;5053322;28;20502;-64
2021/05/19 11:30:33;;;;;;;2.90;2.43;;;16.00;43.00;;;;;;5054181;28;20888;-64
2021/05/19 11:33:08;;;;;;;3.20;1.93;;;16.40;56.40;;;;;;5039424;28;20490;-63
2021/05/19 11:35:34;;;;;;;2.00;1.80;;;16.70;1.00;;;;;;5057276;28;20501;-63
2021/05/19 11:38:02;;;;;;;2.20;2.00;;;16.60;1.00;;;;;;5057501;28;20878;-64
2021/05/19 11:40:43;;;;;;;2.20;1.93;;;16.90;1.00;;;;;;5057562;28;20435;-65
2021/05/19 11:43:09;;;;;;;2.53;2.07;;;17.40;1.00;;;;;;5057410;28;20482;-64
2021/05/19 11:45:35;;;;;;;1.93;1.73;;;17.60;1.00;;;;;;5057220;28;20505;-64
2021/05/19 11:48:01;;;;;;;3.33;2.20;;;17.90;1.00;;;;;;5058448;28;20516;-65
2021/05/19 11:50:32;;;;;;;3.13;1.90;;;18.30;1.00;;;;;;5057659;28;20250;-64
2021/05/19 11:53:09;;;;;;;2.00;1.60;;;18.30;1.00;;;;;;5058362;28;20181;-64
2021/05/19 11:55:35;;;;;;;3.73;2.13;;;18.40;1.00;;;;;;5041342;28;20427;-64
2021/05/19 11:58:05;;;;;;;2.63;2.10;;;18.00;42.70;;;;;;5059189;28;20451;-66
2021/05/19 12:00:36;;;;;;;2.87;2.20;;;17.90;99.90;;;;;;5056591;28;20428;-68
2021/05/19 12:03:02;;;;;;;2.40;2.20;;;18.10;99.90;;;;;;5039758;28;20460;-67
2021/05/19 12:05:46;;;;;;;3.10;2.50;;;18.40;1.00;;;;;;5020459;28;20843;-65
2021/05/19 12:08:13;;;;;;;3.40;2.40;;;18.90;1.00;;;;;;5038396;28;20466;-65
2021/05/19 12:10:41;;;;;;;3.27;2.87;;;18.70;1.00;;;;;;5038330;28;20474;-66
2021/05/19 12:13:07;;;;;;;4.80;3.07;;;18.70;1.00;;;;;;5040171;28;20908;-65
2021/05/19 12:15:34;;;;;;;5.83;3.13;;;19.00;1.00;;;;;;5021472;28;20947;-64
2021/05/19 12:18:00;;;;;;;3.03;2.73;;;19.40;1.00;;;;;;5055773;28;20438;-64
2021/05/19 12:20:27;;;;;;;2.80;2.60;;;19.40;1.00;;;;;;5037645;28;21005;-64
2021/05/19 12:23:00;;;;;;;7.67;3.23;;;18.90;1.00;;;;;;5055644;28;20462;-64
2021/05/19 12:25:26;;;;;;;4.90;3.80;;;18.70;1.00;;;;;;5058399;28;20431;-67
2021/05/19 12:28:05;;;;;;;5.70;3.40;;;18.90;1.00;;;;;;5043013;28;21247;-67
2021/05/19 12:30:46;;;;;;;3.53;3.23;;;18.70;1.00;;;;;;5043159;28;20430;-67
2021/05/19 12:33:13;;;;;;;4.87;3.07;;;18.60;1.00;;;;;;5060227;28;20494;-67
2021/05/19 12:35:45;;;;;;;3.50;3.03;;;18.70;1.00;;;;;;5055873;28;20438;-67
2021/05/19 12:38:12;;;;;;;3.97;2.73;;;19.80;1.00;;;;;;5057434;28;20431;-68
2021/05/19 12:40:39;;;;;;;3.20;2.50;;;20.50;1.00;;;;;;5059944;28;20462;-66
2021/05/19 12:43:09;;;;;;;2.70;2.50;;;19.90;1.00;;;;;;5059149;28;20467;-65
2021/05/19 12:45:42;;;;;;;3.27;2.80;;;18.30;1.00;;;;;;5058827;28;20427;-67
2021/05/19 12:48:14;;;;;;;2.13;1.73;;;18.20;1.00;;;;;;5055368;28;20424;-63
2021/05/19 12:50:59;;;;;;;2.03;1.67;;;18.50;1.00;;;;;;5054822;28;20455;-63
2021/05/19 12:53:42;;;;;;;1.80;1.50;;;18.90;1.00;;;;;;5054370;28;20419;-63
2021/05/19 12:56:16;;;;;;;2.63;1.80;;;19.10;1.00;;;;;;5054526;28;20420;-62
2021/05/19 12:59:12;;;;;;;3.30;1.80;;;19.00;1.00;;;;;;5055080;28;20461;-61